EQX779 LROP-LSZH
Flight info
| Callsign | EQX779 |
|---|---|
| Flight time | N/A |
| Altitude | 36000 |
| Route | POLUN DCT DIRER DCT NIVIS DCT BEDOX DCT ERKIR DCT KPT/N0418F300 L856 NEGRA |
| Aircraft | A320/M-SDE3FGHIRWY/LB1 |
Departure
| Time | 2026-05-07 14:37 |
|---|---|
| Airport | Bucharest Henri Coandă International Airport (LROP) |
Arrival
| Time | N/A |
|---|---|
| Airport | Zürich Airport (LSZH) |
| Time | Latitude | Longitude | Altitude | Speed | Heading |
|---|---|---|---|---|---|
| 2026-05-07 13:49 | 44.57027 | 26.08197 | 323 ft | 0 kts | 354° |
| 2026-05-07 14:26 | 44.57017 | 26.08199 | 322 ft | 2 kts | 354° |
| 2026-05-07 14:27 | 44.57000 | 26.08201 | 322 ft | 2 kts | 356° |
| 2026-05-07 14:27 | 44.56984 | 26.08203 | 320 ft | 2 kts | 359° |
| 2026-05-07 14:27 | 44.56967 | 26.08203 | 322 ft | 2 kts | 2° |
| 2026-05-07 14:27 | 44.56951 | 26.08201 | 322 ft | 2 kts | 20° |
| 2026-05-07 14:28 | 44.56940 | 26.08188 | 322 ft | 1 kts | 88° |
| 2026-05-07 14:28 | 44.56940 | 26.08185 | 322 ft | 0 kts | 81° |
| 2026-05-07 14:31 | 44.56941 | 26.08192 | 322 ft | 2 kts | 82° |
| 2026-05-07 14:31 | 44.56944 | 26.08221 | 322 ft | 4 kts | 82° |
| 2026-05-07 14:31 | 44.56949 | 26.08271 | 321 ft | 6 kts | 82° |
| 2026-05-07 14:31 | 44.56957 | 26.08343 | 322 ft | 9 kts | 78° |
| 2026-05-07 14:32 | 44.57007 | 26.08388 | 320 ft | 10 kts | 358° |
| 2026-05-07 14:32 | 44.57083 | 26.08380 | 321 ft | 12 kts | 353° |
| 2026-05-07 14:32 | 44.57162 | 26.08367 | 322 ft | 13 kts | 352° |
| 2026-05-07 14:32 | 44.57233 | 26.08427 | 322 ft | 14 kts | 77° |
| 2026-05-07 14:33 | 44.57306 | 26.08496 | 322 ft | 15 kts | 354° |
| 2026-05-07 14:33 | 44.57416 | 26.08479 | 323 ft | 17 kts | 354° |
| 2026-05-07 14:33 | 44.57539 | 26.08461 | 323 ft | 19 kts | 354° |
| 2026-05-07 14:33 | 44.57660 | 26.08465 | 323 ft | 10 kts | 49° |
| 2026-05-07 14:34 | 44.57669 | 26.08514 | 323 ft | 0 kts | 80° |
| 2026-05-07 14:36 | 44.57682 | 26.08653 | 323 ft | 46 kts | 84° |
| 2026-05-07 14:36 | 44.57737 | 26.09409 | 322 ft | 107 kts | 84° |
| 2026-05-07 14:36 | 44.57830 | 26.10663 | 323 ft | 151 kts | 84° |
| 2026-05-07 14:36 | 44.57962 | 26.12278 | 481 ft | 177 kts | 83° |
| 2026-05-07 14:37 | 44.58125 | 26.14057 | 869 ft | 192 kts | 85° |
| 2026-05-07 14:37 | 44.58470 | 26.18145 | 1716 ft | 232 kts | 85° |
| 2026-05-07 14:37 | 44.58635 | 26.20492 | 2253 ft | 250 kts | 89° |
| 2026-05-07 14:38 | 44.58366 | 26.22688 | 2977 ft | 255 kts | 115° |
| 2026-05-07 14:38 | 44.57272 | 26.24664 | 3782 ft | 263 kts | 145° |
| 2026-05-07 14:38 | 44.55593 | 26.25674 | 4701 ft | 266 kts | 173° |
| 2026-05-07 14:38 | 44.53763 | 26.25446 | 5622 ft | 267 kts | 201° |
| 2026-05-07 14:39 | 44.52211 | 26.24042 | 6481 ft | 268 kts | 229° |
| 2026-05-07 14:39 | 44.51305 | 26.21806 | 7295 ft | 270 kts | 252° |
| 2026-05-07 14:39 | 44.50807 | 26.19219 | 8156 ft | 273 kts | 256° |
| 2026-05-07 14:39 | 44.50365 | 26.16620 | 8972 ft | 276 kts | 256° |
| 2026-05-07 14:40 | 44.49928 | 26.14024 | 9788 ft | 279 kts | 257° |
| 2026-05-07 14:40 | 44.49480 | 26.11338 | 10319 ft | 293 kts | 258° |
| 2026-05-07 14:40 | 44.49404 | 26.08388 | 10519 ft | 316 kts | 277° |
| 2026-05-07 14:40 | 44.49769 | 26.05284 | 10963 ft | 328 kts | 279° |
| 2026-05-07 14:41 | 44.50138 | 26.02378 | 11538 ft | 333 kts | 279° |
| 2026-05-07 14:41 | 44.50556 | 25.99161 | 12201 ft | 338 kts | 279° |
| 2026-05-07 14:41 | 44.50946 | 25.96147 | 12821 ft | 342 kts | 279° |
| 2026-05-07 14:41 | 44.51365 | 25.92858 | 13479 ft | 346 kts | 279° |
| 2026-05-07 14:42 | 44.51788 | 25.89523 | 14103 ft | 349 kts | 279° |
| 2026-05-07 14:42 | 44.52212 | 25.86152 | 14688 ft | 353 kts | 279° |
| 2026-05-07 14:42 | 44.52637 | 25.82758 | 15279 ft | 355 kts | 279° |
| 2026-05-07 14:42 | 44.53065 | 25.79330 | 15866 ft | 358 kts | 279° |
| 2026-05-07 14:43 | 44.53495 | 25.75873 | 16444 ft | 361 kts | 279° |
| 2026-05-07 14:43 | 44.53925 | 25.72399 | 17022 ft | 364 kts | 279° |
| 2026-05-07 14:43 | 44.54358 | 25.68892 | 17612 ft | 366 kts | 279° |
| 2026-05-07 14:43 | 44.54793 | 25.65361 | 18209 ft | 369 kts | 279° |
| 2026-05-07 14:44 | 44.55232 | 25.61804 | 18736 ft | 372 kts | 279° |
| 2026-05-07 14:44 | 44.55673 | 25.58218 | 19269 ft | 374 kts | 279° |
| 2026-05-07 14:44 | 44.56075 | 25.54924 | 19761 ft | 376 kts | 279° |
| 2026-05-07 14:44 | 44.56516 | 25.51299 | 20289 ft | 378 kts | 279° |
| 2026-05-07 14:45 | 44.56960 | 25.47648 | 20805 ft | 381 kts | 279° |
| 2026-05-07 14:45 | 44.57407 | 25.43970 | 21302 ft | 383 kts | 279° |
| 2026-05-07 14:45 | 44.57855 | 25.40270 | 21793 ft | 386 kts | 279° |
| 2026-05-07 14:45 | 44.58302 | 25.36552 | 22276 ft | 388 kts | 279° |
| 2026-05-07 14:46 | 44.58749 | 25.32798 | 22747 ft | 391 kts | 279° |
| 2026-05-07 14:46 | 44.59198 | 25.29026 | 23204 ft | 393 kts | 279° |
| 2026-05-07 14:46 | 44.59654 | 25.25226 | 23654 ft | 396 kts | 279° |
| 2026-05-07 14:46 | 44.60112 | 25.21410 | 24032 ft | 398 kts | 279° |
| 2026-05-07 14:47 | 44.60565 | 25.17623 | 24416 ft | 400 kts | 279° |
| 2026-05-07 14:47 | 44.61026 | 25.13764 | 24805 ft | 402 kts | 279° |
| 2026-05-07 14:47 | 44.61488 | 25.09884 | 25185 ft | 404 kts | 279° |
| 2026-05-07 14:47 | 44.61911 | 25.06308 | 25547 ft | 406 kts | 279° |
| 2026-05-07 14:48 | 44.62368 | 25.02397 | 25925 ft | 408 kts | 278° |
| 2026-05-07 14:48 | 44.62796 | 24.98713 | 26275 ft | 409 kts | 278° |
| 2026-05-07 14:48 | 44.63247 | 24.94821 | 26640 ft | 411 kts | 278° |
| 2026-05-07 14:48 | 44.63708 | 24.90853 | 27009 ft | 413 kts | 278° |
| 2026-05-07 14:49 | 44.64132 | 24.87188 | 27344 ft | 415 kts | 278° |
| 2026-05-07 14:49 | 44.64596 | 24.83191 | 27706 ft | 417 kts | 278° |
| 2026-05-07 14:49 | 44.65043 | 24.79329 | 28061 ft | 419 kts | 278° |
| 2026-05-07 14:49 | 44.65491 | 24.75446 | 28415 ft | 420 kts | 278° |
| 2026-05-07 14:50 | 44.65800 | 24.72755 | 28658 ft | 422 kts | 278° |
| 2026-05-07 14:50 | 44.66268 | 24.68676 | 29020 ft | 424 kts | 278° |
| 2026-05-07 14:50 | 44.66738 | 24.64581 | 29386 ft | 426 kts | 278° |
| 2026-05-07 14:50 | 44.67169 | 24.60798 | 29712 ft | 428 kts | 278° |
| 2026-05-07 14:51 | 44.67638 | 24.56667 | 30103 ft | 428 kts | 278° |
| 2026-05-07 14:51 | 44.68106 | 24.52544 | 30557 ft | 426 kts | 278° |
| 2026-05-07 14:51 | 44.68528 | 24.48800 | 30980 ft | 424 kts | 278° |
| 2026-05-07 14:51 | 44.68984 | 24.44725 | 31455 ft | 421 kts | 278° |
| 2026-05-07 14:52 | 44.69414 | 24.40858 | 31912 ft | 419 kts | 278° |
| 2026-05-07 14:52 | 44.69848 | 24.36958 | 32388 ft | 416 kts | 277° |
| 2026-05-07 14:52 | 44.70285 | 24.33032 | 32865 ft | 414 kts | 277° |
| 2026-05-07 14:52 | 44.70697 | 24.29342 | 33314 ft | 411 kts | 277° |
| 2026-05-07 14:53 | 44.71136 | 24.25381 | 33812 ft | 409 kts | 277° |
| 2026-05-07 14:53 | 44.71531 | 24.21776 | 34218 ft | 407 kts | 277° |
| 2026-05-07 14:53 | 44.71961 | 24.17863 | 34577 ft | 406 kts | 277° |
| 2026-05-07 14:53 | 44.72393 | 24.13941 | 34893 ft | 406 kts | 277° |
| 2026-05-07 14:54 | 44.72785 | 24.10354 | 35172 ft | 406 kts | 277° |
| 2026-05-07 14:54 | 44.73210 | 24.06436 | 35462 ft | 405 kts | 276° |
| 2026-05-07 14:54 | 44.73633 | 24.02521 | 35756 ft | 405 kts | 276° |
| 2026-05-07 14:54 | 44.74057 | 23.98590 | 35983 ft | 406 kts | 276° |
| 2026-05-07 14:55 | 44.74869 | 23.91010 | 36045 ft | 412 kts | 276° |
| 2026-05-07 14:55 | 44.75687 | 23.83323 | 36041 ft | 414 kts | 276° |
| 2026-05-07 14:56 | 44.76538 | 23.75298 | 36044 ft | 415 kts | 276° |
| 2026-05-07 14:56 | 44.77349 | 23.67622 | 36042 ft | 415 kts | 276° |
| 2026-05-07 14:57 | 44.78161 | 23.59913 | 36046 ft | 415 kts | 276° |
| 2026-05-07 14:57 | 44.79008 | 23.51827 | 36048 ft | 415 kts | 275° |
| 2026-05-07 14:58 | 44.79799 | 23.44158 | 36044 ft | 415 kts | 275° |
| 2026-05-07 14:58 | 44.80590 | 23.36429 | 36045 ft | 416 kts | 275° |
| 2026-05-07 14:59 | 44.81412 | 23.28367 | 36046 ft | 416 kts | 275° |
| 2026-05-07 14:59 | 44.82199 | 23.20630 | 36045 ft | 416 kts | 275° |
| 2026-05-07 15:00 | 44.82980 | 23.12863 | 36048 ft | 417 kts | 275° |
| 2026-05-07 15:00 | 44.83752 | 23.05093 | 36046 ft | 418 kts | 275° |
| 2026-05-07 15:01 | 44.84552 | 22.96994 | 36051 ft | 417 kts | 275° |
| 2026-05-07 15:01 | 44.85316 | 22.89186 | 36065 ft | 418 kts | 274° |
| 2026-05-07 15:02 | 44.86079 | 22.81375 | 36066 ft | 418 kts | 274° |
| 2026-05-07 15:02 | 44.86835 | 22.73586 | 36069 ft | 418 kts | 274° |
| 2026-05-07 15:03 | 44.87583 | 22.65750 | 36072 ft | 418 kts | 274° |
| 2026-05-07 15:03 | 44.88335 | 22.57857 | 36073 ft | 418 kts | 274° |
| 2026-05-07 15:04 | 44.89098 | 22.49848 | 36073 ft | 418 kts | 274° |
| 2026-05-07 15:04 | 44.89834 | 22.42056 | 36071 ft | 418 kts | 274° |
| 2026-05-07 15:05 | 44.90559 | 22.34267 | 36071 ft | 418 kts | 274° |
| 2026-05-07 15:05 | 44.91278 | 22.26450 | 36068 ft | 417 kts | 274° |
| 2026-05-07 15:06 | 44.92026 | 22.18324 | 36065 ft | 417 kts | 274° |
| 2026-05-07 15:06 | 44.92742 | 22.10500 | 36062 ft | 418 kts | 274° |
| 2026-05-07 15:07 | 44.93450 | 22.02710 | 36066 ft | 417 kts | 274° |
| 2026-05-07 15:07 | 44.94152 | 21.94863 | 36061 ft | 417 kts | 274° |
| 2026-05-07 15:08 | 44.94850 | 21.87064 | 36064 ft | 417 kts | 274° |
| 2026-05-07 15:08 | 44.95551 | 21.79111 | 36046 ft | 417 kts | 274° |
| 2026-05-07 15:09 | 44.96252 | 21.71105 | 36052 ft | 417 kts | 274° |
| 2026-05-07 15:09 | 44.96931 | 21.63276 | 36029 ft | 416 kts | 274° |
| 2026-05-07 15:10 | 44.97600 | 21.55525 | 36034 ft | 416 kts | 273° |
| 2026-05-07 15:10 | 44.98264 | 21.47673 | 36024 ft | 417 kts | 273° |
| 2026-05-07 15:11 | 44.99042 | 21.39739 | 36023 ft | 420 kts | 279° |
| 2026-05-07 15:11 | 45.00385 | 21.31858 | 36019 ft | 421 kts | 279° |
| 2026-05-07 15:12 | 45.01706 | 21.24125 | 36020 ft | 421 kts | 279° |
| 2026-05-07 15:12 | 45.03014 | 21.16377 | 36023 ft | 421 kts | 279° |
| 2026-05-07 15:13 | 45.04315 | 21.08602 | 36025 ft | 422 kts | 279° |
| 2026-05-07 15:13 | 45.05633 | 21.00713 | 36027 ft | 421 kts | 279° |
| 2026-05-07 15:14 | 45.06949 | 20.92802 | 36032 ft | 421 kts | 279° |
| 2026-05-07 15:14 | 45.08238 | 20.85028 | 36038 ft | 422 kts | 279° |
| 2026-05-07 15:15 | 45.09515 | 20.77279 | 36034 ft | 421 kts | 279° |
| 2026-05-07 15:15 | 45.10780 | 20.69547 | 36034 ft | 421 kts | 279° |
| 2026-05-07 15:16 | 45.12048 | 20.61785 | 36038 ft | 421 kts | 279° |
| 2026-05-07 15:16 | 45.13350 | 20.53768 | 36040 ft | 420 kts | 279° |
| 2026-05-07 15:17 | 45.14601 | 20.46036 | 36043 ft | 420 kts | 279° |
| 2026-05-07 15:17 | 45.15856 | 20.38288 | 36041 ft | 420 kts | 279° |
| 2026-05-07 15:18 | 45.17090 | 20.30572 | 36041 ft | 420 kts | 279° |
| 2026-05-07 15:18 | 45.18331 | 20.22759 | 36042 ft | 420 kts | 279° |
| 2026-05-07 15:19 | 45.19608 | 20.14749 | 36042 ft | 419 kts | 279° |
| 2026-05-07 15:19 | 45.20835 | 20.06998 | 36043 ft | 419 kts | 279° |
| 2026-05-07 15:20 | 45.22047 | 19.99277 | 36040 ft | 418 kts | 279° |
| 2026-05-07 15:20 | 45.23264 | 19.91505 | 36045 ft | 418 kts | 279° |
| 2026-05-07 15:21 | 45.24518 | 19.83463 | 36044 ft | 417 kts | 279° |
| 2026-05-07 15:21 | 45.26024 | 19.75895 | 36040 ft | 421 kts | 288° |
| 2026-05-07 15:22 | 45.28094 | 19.68476 | 36037 ft | 421 kts | 288° |
| 2026-05-07 15:22 | 45.30241 | 19.60747 | 36035 ft | 420 kts | 287° |
| 2026-05-07 15:23 | 45.32298 | 19.53308 | 36030 ft | 420 kts | 287° |
| 2026-05-07 15:23 | 45.34346 | 19.45851 | 36036 ft | 420 kts | 287° |
| 2026-05-07 15:24 | 45.36372 | 19.38412 | 36035 ft | 420 kts | 287° |
| 2026-05-07 15:24 | 45.38431 | 19.30860 | 36035 ft | 420 kts | 287° |
| 2026-05-07 15:25 | 45.40501 | 19.23256 | 36032 ft | 420 kts | 287° |
| 2026-05-07 15:25 | 45.42521 | 19.15825 | 36033 ft | 420 kts | 287° |
| 2026-05-07 15:26 | 45.44531 | 19.08401 | 36025 ft | 420 kts | 287° |
| 2026-05-07 15:26 | 45.46545 | 19.00938 | 36024 ft | 420 kts | 287° |
| 2026-05-07 15:27 | 45.48538 | 18.93506 | 36022 ft | 420 kts | 287° |
| 2026-05-07 15:27 | 45.50616 | 18.85728 | 36021 ft | 420 kts | 286° |
| 2026-05-07 15:28 | 45.52621 | 18.78236 | 36024 ft | 420 kts | 286° |
| 2026-05-07 15:28 | 45.54619 | 18.70750 | 36026 ft | 420 kts | 286° |
| 2026-05-07 15:29 | 45.56683 | 18.62965 | 36030 ft | 420 kts | 286° |
| 2026-05-07 15:29 | 45.58658 | 18.55496 | 36036 ft | 420 kts | 286° |
| 2026-05-07 15:30 | 45.60629 | 18.48014 | 36039 ft | 419 kts | 286° |
| 2026-05-07 15:30 | 45.62595 | 18.40535 | 36041 ft | 419 kts | 286° |
| 2026-05-07 15:31 | 45.64529 | 18.33116 | 36043 ft | 419 kts | 285° |
| 2026-05-07 15:31 | 45.66488 | 18.25636 | 36045 ft | 419 kts | 286° |
| 2026-05-07 15:32 | 45.68535 | 18.17819 | 36041 ft | 418 kts | 285° |
| 2026-05-07 15:32 | 45.70485 | 18.10299 | 36044 ft | 418 kts | 285° |
| 2026-05-07 15:33 | 45.72424 | 18.02786 | 36043 ft | 418 kts | 285° |
| 2026-05-07 15:33 | 45.74353 | 17.95315 | 36040 ft | 417 kts | 285° |
| 2026-05-07 15:34 | 45.76289 | 17.87799 | 36038 ft | 417 kts | 285° |
| 2026-05-07 15:34 | 45.77945 | 17.81320 | 36041 ft | 417 kts | 285° |
| 2026-05-07 15:35 | 45.80175 | 17.72577 | 36036 ft | 416 kts | 285° |
| 2026-05-07 15:35 | 45.81835 | 17.66060 | 36037 ft | 416 kts | 285° |
| 2026-05-07 15:36 | 45.83812 | 17.58268 | 36033 ft | 416 kts | 285° |
| 2026-05-07 15:36 | 45.85776 | 17.50487 | 36033 ft | 415 kts | 285° |
| 2026-05-07 15:37 | 45.87667 | 17.42965 | 36036 ft | 415 kts | 285° |
| 2026-05-07 15:37 | 45.89630 | 17.35174 | 36029 ft | 414 kts | 284° |
| 2026-05-07 15:38 | 45.91580 | 17.27398 | 36037 ft | 414 kts | 284° |
| 2026-05-07 15:38 | 45.93434 | 17.19958 | 36027 ft | 414 kts | 284° |
| 2026-05-07 15:39 | 45.95294 | 17.12468 | 36033 ft | 414 kts | 284° |
| 2026-05-07 15:39 | 45.97225 | 17.04676 | 36022 ft | 414 kts | 284° |
| 2026-05-07 15:40 | 45.99152 | 16.96880 | 36025 ft | 413 kts | 284° |
| 2026-05-07 15:40 | 46.00994 | 16.89388 | 36025 ft | 413 kts | 284° |
| 2026-05-07 15:41 | 46.02839 | 16.81869 | 36023 ft | 413 kts | 284° |
| 2026-05-07 15:41 | 46.04655 | 16.74457 | 36021 ft | 413 kts | 284° |
| 2026-05-07 15:42 | 46.06465 | 16.67023 | 36019 ft | 413 kts | 284° |
| 2026-05-07 15:42 | 46.08355 | 16.59225 | 36018 ft | 412 kts | 284° |
| 2026-05-07 15:43 | 46.10164 | 16.51761 | 36019 ft | 412 kts | 284° |
| 2026-05-07 15:43 | 46.11975 | 16.44267 | 36012 ft | 411 kts | 284° |
| 2026-05-07 15:44 | 46.13764 | 16.36814 | 36005 ft | 411 kts | 284° |
| 2026-05-07 15:44 | 46.15559 | 16.29320 | 36000 ft | 411 kts | 284° |
| 2026-05-07 15:45 | 46.17392 | 16.21654 | 35999 ft | 411 kts | 284° |
| 2026-05-07 15:45 | 46.19200 | 16.14069 | 35995 ft | 410 kts | 283° |
| 2026-05-07 15:46 | 46.21856 | 16.02869 | 35989 ft | 411 kts | 284° |
| 2026-05-07 15:47 | 46.23671 | 15.95156 | 35981 ft | 411 kts | 283° |
| 2026-05-07 15:47 | 46.25427 | 15.87666 | 35976 ft | 411 kts | 284° |
| 2026-05-07 15:48 | 46.27435 | 15.80264 | 35973 ft | 417 kts | 291° |
| 2026-05-07 15:48 | 46.29989 | 15.73135 | 35966 ft | 417 kts | 292° |
| 2026-05-07 15:49 | 46.32657 | 15.65671 | 35962 ft | 418 kts | 292° |
| 2026-05-07 15:49 | 46.35208 | 15.58512 | 35966 ft | 418 kts | 291° |
| 2026-05-07 15:50 | 46.37758 | 15.51315 | 35964 ft | 418 kts | 291° |
| 2026-05-07 15:50 | 46.40293 | 15.44126 | 35965 ft | 418 kts | 291° |
| 2026-05-07 15:51 | 46.42946 | 15.36612 | 35959 ft | 419 kts | 292° |
| 2026-05-07 15:51 | 46.45482 | 15.29411 | 35963 ft | 419 kts | 292° |
| 2026-05-07 15:52 | 46.48023 | 15.22169 | 35952 ft | 419 kts | 291° |
| 2026-05-07 15:52 | 46.50546 | 15.14931 | 35946 ft | 419 kts | 291° |
| 2026-05-07 15:53 | 46.53072 | 15.07665 | 35946 ft | 420 kts | 291° |
| 2026-05-07 15:53 | 46.55709 | 15.00088 | 35942 ft | 420 kts | 292° |
| 2026-05-07 15:54 | 46.58241 | 14.92779 | 35944 ft | 421 kts | 291° |
| 2026-05-07 15:54 | 46.60757 | 14.85481 | 35942 ft | 421 kts | 291° |
| 2026-05-07 15:55 | 46.63287 | 14.78147 | 35951 ft | 421 kts | 291° |
| 2026-05-07 15:55 | 46.65799 | 14.70850 | 35957 ft | 421 kts | 291° |
| 2026-05-07 15:56 | 46.68422 | 14.63226 | 35963 ft | 421 kts | 292° |
| 2026-05-07 15:56 | 46.70926 | 14.55907 | 35967 ft | 421 kts | 291° |
| 2026-05-07 15:57 | 46.73420 | 14.48560 | 35966 ft | 421 kts | 291° |
| 2026-05-07 15:57 | 46.76017 | 14.40899 | 35968 ft | 421 kts | 292° |
| 2026-05-07 15:58 | 46.78518 | 14.33523 | 35967 ft | 421 kts | 292° |
| 2026-05-07 15:58 | 46.81008 | 14.26168 | 35965 ft | 422 kts | 292° |
| 2026-05-07 15:59 | 46.83512 | 14.18745 | 35959 ft | 421 kts | 292° |
| 2026-05-07 15:59 | 46.86082 | 14.11100 | 35958 ft | 421 kts | 292° |
| 2026-05-07 16:00 | 46.88540 | 14.03764 | 35963 ft | 421 kts | 292° |
| 2026-05-07 16:00 | 46.91014 | 13.96350 | 35965 ft | 421 kts | 292° |
| 2026-05-07 16:01 | 46.93478 | 13.88957 | 35974 ft | 421 kts | 292° |
| 2026-05-07 16:01 | 46.95949 | 13.81525 | 35985 ft | 421 kts | 292° |
| 2026-05-07 16:02 | 46.98497 | 13.73834 | 35987 ft | 421 kts | 292° |
| 2026-05-07 16:02 | 47.00946 | 13.66412 | 35993 ft | 422 kts | 291° |
| 2026-05-07 16:03 | 47.03405 | 13.58923 | 35999 ft | 422 kts | 291° |
| 2026-05-07 16:03 | 47.05857 | 13.51452 | 36011 ft | 422 kts | 292° |
| 2026-05-07 16:04 | 47.08396 | 13.43699 | 36015 ft | 421 kts | 291° |
| 2026-05-07 16:04 | 47.10793 | 13.36347 | 36014 ft | 421 kts | 291° |
| 2026-05-07 16:05 | 47.13224 | 13.28884 | 36025 ft | 422 kts | 291° |
| 2026-05-07 16:05 | 47.15595 | 13.21576 | 36032 ft | 422 kts | 291° |
| 2026-05-07 16:06 | 47.18002 | 13.14121 | 36032 ft | 422 kts | 291° |
| 2026-05-07 16:06 | 47.20515 | 13.06309 | 36037 ft | 422 kts | 291° |
| 2026-05-07 16:07 | 47.22922 | 12.98832 | 36045 ft | 422 kts | 291° |
| 2026-05-07 16:07 | 47.25334 | 12.91341 | 36041 ft | 422 kts | 291° |
| 2026-05-07 16:08 | 47.27735 | 12.83837 | 36038 ft | 422 kts | 291° |
| 2026-05-07 16:08 | 47.30168 | 12.76207 | 36044 ft | 423 kts | 291° |
| 2026-05-07 16:09 | 47.32637 | 12.68460 | 36042 ft | 423 kts | 291° |
| 2026-05-07 16:09 | 47.35024 | 12.60934 | 36039 ft | 423 kts | 291° |
| 2026-05-07 16:10 | 47.37371 | 12.53473 | 36041 ft | 423 kts | 291° |
| 2026-05-07 16:10 | 47.39735 | 12.45962 | 36046 ft | 424 kts | 291° |
| 2026-05-07 16:11 | 47.42215 | 12.38077 | 36042 ft | 423 kts | 291° |
| 2026-05-07 16:11 | 47.44584 | 12.30505 | 36048 ft | 424 kts | 291° |
| 2026-05-07 16:12 | 47.46933 | 12.22968 | 36049 ft | 424 kts | 291° |
| 2026-05-07 16:12 | 47.49309 | 12.15349 | 36052 ft | 424 kts | 291° |
| 2026-05-07 16:13 | 47.51676 | 12.07726 | 36050 ft | 424 kts | 291° |
| 2026-05-07 16:13 | 47.53627 | 12.01024 | 36051 ft | 421 kts | 284° |